sensor_id;sensor_type;location;lat;lon;timestamp;temperature;humidity
11474;DHT22;5793;52.238;13.438;2023-06-05T00:00:31;9.90;99.90
11474;DHT22;5793;52.238;13.438;2023-06-05T00:02:59;10.00;99.90
11474;DHT22;5793;52.238;13.438;2023-06-05T00:05:27;10.10;99.90
11474;DHT22;5793;52.238;13.438;2023-06-05T00:07:56;10.10;99.90
11474;DHT22;5793;52.238;13.438;2023-06-05T00:10:23;10.10;99.90
11474;DHT22;5793;52.238;13.438;2023-06-05T00:12:53;10.00;99.90
11474;DHT22;5793;52.238;13.438;2023-06-05T00:15:21;9.90;99.90
11474;DHT22;5793;52.238;13.438;2023-06-05T00:17:49;9.70;99.90
11474;DHT22;5793;52.238;13.438;2023-06-05T00:20:18;9.60;99.90
11474;DHT22;5793;52.238;13.438;2023-06-05T00:22:46;9.60;99.90
11474;DHT22;5793;52.238;13.438;2023-06-05T00:25:15;9.40;99.90
11474;DHT22;5793;52.238;13.438;2023-06-05T00:27:43;9.30;99.90
11474;DHT22;5793;52.238;13.438;2023-06-05T00:30:13;9.40;99.90
11474;DHT22;5793;52.238;13.438;2023-06-05T00:32:41;9.40;99.90
11474;DHT22;5793;52.238;13.438;2023-06-05T00:35:09;9.40;99.90
11474;DHT22;5793;52.238;13.438;2023-06-05T00:37:37;9.30;99.90
11474;DHT22;5793;52.238;13.438;2023-06-05T00:40:06;9.20;99.90
11474;DHT22;5793;52.238;13.438;2023-06-05T00:42:34;9.00;99.90
11474;DHT22;5793;52.238;13.438;2023-06-05T00:45:02;8.90;99.90
11474;DHT22;5793;52.238;13.438;2023-06-05T00:47:32;8.90;99.90
11474;DHT22;5793;52.238;13.438;2023-06-05T00:50:00;8.90;99.90
11474;DHT22;5793;52.238;13.438;2023-06-05T00:52:28;8.80;99.90
11474;DHT22;5793;52.238;13.438;2023-06-05T00:54:56;8.90;99.90
11474;DHT22;5793;52.238;13.438;2023-06-05T00:57:25;8.80;99.90
11474;DHT22;5793;52.238;13.438;2023-06-05T00:59:54;8.80;99.90
11474;DHT22;5793;52.238;13.438;2023-06-05T01:02:22;8.80;99.90
11474;DHT22;5793;52.238;13.438;2023-06-05T01:04:53;8.70;99.90
11474;DHT22;5793;52.238;13.438;2023-06-05T01:07:23;8.60;99.90
11474;DHT22;5793;52.238;13.438;2023-06-05T01:09:51;8.50;99.90
11474;DHT22;5793;52.238;13.438;2023-06-05T01:12:24;8.50;99.90
11474;DHT22;5793;52.238;13.438;2023-06-05T01:14:56;8.50;99.90
11474;DHT22;5793;52.238;13.438;2023-06-05T01:17:26;8.60;99.90
11474;DHT22;5793;52.238;13.438;2023-06-05T01:23:44;8.70;99.90
11474;DHT22;5793;52.238;13.438;2023-06-05T01:26:16;8.80;99.90
11474;DHT22;5793;52.238;13.438;2023-06-05T01:28:47;8.80;99.90
11474;DHT22;5793;52.238;13.438;2023-06-05T01:31:19;8.80;99.90
11474;DHT22;5793;52.238;13.438;2023-06-05T01:33:53;8.70;99.90
11474;DHT22;5793;52.238;13.438;2023-06-05T01:36:23;8.50;99.90
11474;DHT22;5793;52.238;13.438;2023-06-05T01:38:54;8.40;99.90
11474;DHT22;5793;52.238;13.438;2023-06-05T01:41:23;8.30;99.90
11474;DHT22;5793;52.238;13.438;2023-06-05T01:43:52;8.30;99.90
11474;DHT22;5793;52.238;13.438;2023-06-05T01:46:22;8.40;99.90
11474;DHT22;5793;52.238;13.438;2023-06-05T01:48:50;8.40;99.90
11474;DHT22;5793;52.238;13.438;2023-06-05T01:51:19;8.50;99.90
11474;DHT22;5793;52.238;13.438;2023-06-05T01:53:47;8.50;99.90
11474;DHT22;5793;52.238;13.438;2023-06-05T01:56:18;8.50;99.90
11474;DHT22;5793;52.238;13.438;2023-06-05T01:58:47;8.50;99.90
11474;DHT22;5793;52.238;13.438;2023-06-05T02:01:15;8.40;99.90
11474;DHT22;5793;52.238;13.438;2023-06-05T02:03:46;8.50;99.90
11474;DHT22;5793;52.238;13.438;2023-06-05T02:06:15;8.40;99.90
11474;DHT22;5793;52.238;13.438;2023-06-05T02:08:43;8.30;99.90
11474;DHT22;5793;52.238;13.438;2023-06-05T02:11:11;8.20;99.90
11474;DHT22;5793;52.238;13.438;2023-06-05T02:13:40;8.00;99.90
11474;DHT22;5793;52.238;13.438;2023-06-05T02:16:11;8.00;99.90
11474;DHT22;5793;52.238;13.438;2023-06-05T02:18:39;8.00;99.90
11474;DHT22;5793;52.238;13.438;2023-06-05T02:21:07;8.10;99.90
11474;DHT22;5793;52.238;13.438;2023-06-05T02:23:37;8.20;99.90
11474;DHT22;5793;52.238;13.438;2023-06-05T02:26:04;8.10;99.90
11474;DHT22;5793;52.238;13.438;2023-06-05T02:28:32;8.10;99.90
11474;DHT22;5793;52.238;13.438;2023-06-05T02:31:01;8.00;99.90
11474;DHT22;5793;52.238;13.438;2023-06-05T02:33:31;7.80;99.90
11474;DHT22;5793;52.238;13.438;2023-06-05T02:35:59;7.70;99.90
11474;DHT22;5793;52.238;13.438;2023-06-05T02:38:27;7.70;99.90
11474;DHT22;5793;52.238;13.438;2023-06-05T02:40:55;7.70;99.90
11474;DHT22;5793;52.238;13.438;2023-06-05T02:43:23;7.80;99.90
11474;DHT22;5793;52.238;13.438;2023-06-05T02:45:51;7.90;99.90
11474;DHT22;5793;52.238;13.438;2023-06-05T02:48:20;7.80;99.90
11474;DHT22;5793;52.238;13.438;2023-06-05T02:50:49;7.80;99.90
11474;DHT22;5793;52.238;13.438;2023-06-05T02:53:17;7.70;99.90
11474;DHT22;5793;52.238;13.438;2023-06-05T02:55:45;7.60;99.90
11474;DHT22;5793;52.238;13.438;2023-06-05T02:58:12;7.60;99.90
11474;DHT22;5793;52.238;13.438;2023-06-05T03:00:44;7.50;99.90
11474;DHT22;5793;52.238;13.438;2023-06-05T03:03:13;7.50;99.90
11474;DHT22;5793;52.238;13.438;2023-06-05T03:05:45;7.40;99.90
11474;DHT22;5793;52.238;13.438;2023-06-05T03:08:12;7.40;99.90
11474;DHT22;5793;52.238;13.438;2023-06-05T03:10:40;7.60;99.90
11474;DHT22;5793;52.238;13.438;2023-06-05T03:13:08;7.70;99.90
11474;DHT22;5793;52.238;13.438;2023-06-05T03:15:36;7.70;99.90
11474;DHT22;5793;52.238;13.438;2023-06-05T03:18:04;7.60;99.90
11474;DHT22;5793;52.238;13.438;2023-06-05T03:20:32;7.60;99.90
11474;DHT22;5793;52.238;13.438;2023-06-05T03:23:02;7.60;99.90
11474;DHT22;5793;52.238;13.438;2023-06-05T03:25:30;7.50;99.90
11474;DHT22;5793;52.238;13.438;2023-06-05T03:27:57;7.40;99.90
11474;DHT22;5793;52.238;13.438;2023-06-05T03:30:25;7.50;99.90
11474;DHT22;5793;52.238;13.438;2023-06-05T03:32:53;7.60;99.90
11474;DHT22;5793;52.238;13.438;2023-06-05T03:35:21;7.70;99.90
11474;DHT22;5793;52.238;13.438;2023-06-05T03:37:49;7.70;99.90
11474;DHT22;5793;52.238;13.438;2023-06-05T03:40:18;7.80;99.90
11474;DHT22;5793;52.238;13.438;2023-06-05T03:42:46;7.80;99.90
11474;DHT22;5793;52.238;13.438;2023-06-05T03:45:14;7.70;99.90
11474;DHT22;5793;52.238;13.438;2023-06-05T03:47:42;7.70;99.90
11474;DHT22;5793;52.238;13.438;2023-06-05T03:50:11;7.70;99.90
11474;DHT22;5793;52.238;13.438;2023-06-05T03:52:39;7.70;99.90
11474;DHT22;5793;52.238;13.438;2023-06-05T03:55:08;7.60;99.90
11474;DHT22;5793;52.238;13.438;2023-06-05T03:57:38;7.60;99.90
11474;DHT22;5793;52.238;13.438;2023-06-05T04:00:06;7.60;99.90
11474;DHT22;5793;52.238;13.438;2023-06-05T04:02:36;7.80;99.90
11474;DHT22;5793;52.238;13.438;2023-06-05T04:05:05;7.90;99.90
11474;DHT22;5793;52.238;13.438;2023-06-05T04:07:38;8.10;99.90
11474;DHT22;5793;52.238;13.438;2023-06-05T04:10:06;8.30;99.90
11474;DHT22;5793;52.238;13.438;2023-06-05T04:12:34;8.40;99.90
11474;DHT22;5793;52.238;13.438;2023-06-05T04:15:04;8.50;99.90
11474;DHT22;5793;52.238;13.438;2023-06-05T04:17:32;8.60;99.90
11474;DHT22;5793;52.238;13.438;2023-06-05T04:20:00;8.70;99.90
11474;DHT22;5793;52.238;13.438;2023-06-05T04:22:28;8.80;99.90
11474;DHT22;5793;52.238;13.438;2023-06-05T04:24:56;8.80;99.90
11474;DHT22;5793;52.238;13.438;2023-06-05T04:27:24;8.90;99.90
11474;DHT22;5793;52.238;13.438;2023-06-05T04:29:55;8.90;99.90
11474;DHT22;5793;52.238;13.438;2023-06-05T04:32:24;9.10;99.90
11474;DHT22;5793;52.238;13.438;2023-06-05T04:34:52;9.20;99.90
11474;DHT22;5793;52.238;13.438;2023-06-05T04:37:20;9.40;99.90
11474;DHT22;5793;52.238;13.438;2023-06-05T04:39:48;9.60;99.90
11474;DHT22;5793;52.238;13.438;2023-06-05T04:42:15;9.90;99.90
11474;DHT22;5793;52.238;13.438;2023-06-05T04:44:47;10.00;99.90
11474;DHT22;5793;52.238;13.438;2023-06-05T04:47:20;10.00;99.90
11474;DHT22;5793;52.238;13.438;2023-06-05T04:49:50;10.00;99.90
11474;DHT22;5793;52.238;13.438;2023-06-05T04:52:19;10.00;99.90
11474;DHT22;5793;52.238;13.438;2023-06-05T04:54:48;10.10;99.90
11474;DHT22;5793;52.238;13.438;2023-06-05T04:57:16;10.20;99.90
11474;DHT22;5793;52.238;13.438;2023-06-05T04:59:45;10.20;99.90
11474;DHT22;5793;52.238;13.438;2023-06-05T05:02:13;10.20;99.90
11474;DHT22;5793;52.238;13.438;2023-06-05T05:04:41;10.40;99.90
11474;DHT22;5793;52.238;13.438;2023-06-05T05:07:10;10.50;99.90
11474;DHT22;5793;52.238;13.438;2023-06-05T05:09:42;10.60;99.90
11474;DHT22;5793;52.238;13.438;2023-06-05T05:12:10;10.70;99.90
11474;DHT22;5793;52.238;13.438;2023-06-05T05:14:38;10.70;99.90
11474;DHT22;5793;52.238;13.438;2023-06-05T05:17:07;10.80;99.90
11474;DHT22;5793;52.238;13.438;2023-06-05T05:19:35;11.00;99.90
11474;DHT22;5793;52.238;13.438;2023-06-05T05:22:06;11.10;99.90
11474;DHT22;5793;52.238;13.438;2023-06-05T05:24:35;11.20;99.90
11474;DHT22;5793;52.238;13.438;2023-06-05T05:27:03;11.30;99.90
11474;DHT22;5793;52.238;13.438;2023-06-05T05:29:31;11.40;99.90
11474;DHT22;5793;52.238;13.438;2023-06-05T05:31:59;11.50;99.90
11474;DHT22;5793;52.238;13.438;2023-06-05T05:34:27;11.70;99.90
11474;DHT22;5793;52.238;13.438;2023-06-05T05:36:55;11.80;99.90
11474;DHT22;5793;52.238;13.438;2023-06-05T05:39:23;11.90;99.90
11474;DHT22;5793;52.238;13.438;2023-06-05T05:41:52;12.10;99.90
11474;DHT22;5793;52.238;13.438;2023-06-05T05:44:20;12.20;99.90
11474;DHT22;5793;52.238;13.438;2023-06-05T05:46:48;12.30;99.90
11474;DHT22;5793;52.238;13.438;2023-06-05T05:49:16;12.40;99.90
11474;DHT22;5793;52.238;13.438;2023-06-05T05:51:44;12.50;99.90
11474;DHT22;5793;52.238;13.438;2023-06-05T05:54:12;12.70;99.90
11474;DHT22;5793;52.238;13.438;2023-06-05T05:56:40;12.70;99.90
11474;DHT22;5793;52.238;13.438;2023-06-05T05:59:10;12.90;99.90
11474;DHT22;5793;52.238;13.438;2023-06-05T06:01:38;13.00;99.90
11474;DHT22;5793;52.238;13.438;2023-06-05T06:04:06;13.20;99.90
11474;DHT22;5793;52.238;13.438;2023-06-05T06:06:36;13.30;99.90
11474;DHT22;5793;52.238;13.438;2023-06-05T06:09:05;13.50;99.90
11474;DHT22;5793;52.238;13.438;2023-06-05T06:11:36;13.60;99.90
11474;DHT22;5793;52.238;13.438;2023-06-05T06:14:04;13.70;99.90
11474;DHT22;5793;52.238;13.438;2023-06-05T06:16:34;13.90;99.90
11474;DHT22;5793;52.238;13.438;2023-06-05T06:19:02;14.00;99.90
11474;DHT22;5793;52.238;13.438;2023-06-05T06:21:30;14.10;99.90
11474;DHT22;5793;52.238;13.438;2023-06-05T06:23:58;14.30;99.90
11474;DHT22;5793;52.238;13.438;2023-06-05T06:26:26;14.40;99.90
11474;DHT22;5793;52.238;13.438;2023-06-05T06:28:54;14.60;99.90
11474;DHT22;5793;52.238;13.438;2023-06-05T06:31:24;14.70;99.90
11474;DHT22;5793;52.238;13.438;2023-06-05T06:33:53;14.90;99.90
11474;DHT22;5793;52.238;13.438;2023-06-05T06:36:21;15.00;99.90
11474;DHT22;5793;52.238;13.438;2023-06-05T06:38:49;15.20;99.90
11474;DHT22;5793;52.238;13.438;2023-06-05T06:41:17;15.30;99.90
11474;DHT22;5793;52.238;13.438;2023-06-05T06:43:45;15.50;99.90
11474;DHT22;5793;52.238;13.438;2023-06-05T06:46:13;15.60;99.90
11474;DHT22;5793;52.238;13.438;2023-06-05T06:48:40;15.80;99.90
11474;DHT22;5793;52.238;13.438;2023-06-05T06:51:10;16.00;99.90
11474;DHT22;5793;52.238;13.438;2023-06-05T06:53:38;16.20;99.90
11474;DHT22;5793;52.238;13.438;2023-06-05T06:56:07;16.40;99.90
11474;DHT22;5793;52.238;13.438;2023-06-05T06:58:35;16.50;99.90
11474;DHT22;5793;52.238;13.438;2023-06-05T07:01:03;16.70;99.90
11474;DHT22;5793;52.238;13.438;2023-06-05T07:03:31;16.80;99.90
11474;DHT22;5793;52.238;13.438;2023-06-05T07:05:59;17.10;99.90
11474;DHT22;5793;52.238;13.438;2023-06-05T07:08:28;17.20;99.90
11474;DHT22;5793;52.238;13.438;2023-06-05T07:10:56;17.50;99.90
11474;DHT22;5793;52.238;13.438;2023-06-05T07:13:24;17.70;99.90
11474;DHT22;5793;52.238;13.438;2023-06-05T07:15:52;17.80;99.90
11474;DHT22;5793;52.238;13.438;2023-06-05T07:18:19;18.00;99.90
11474;DHT22;5793;52.238;13.438;2023-06-05T07:20:47;18.20;99.90
11474;DHT22;5793;52.238;13.438;2023-06-05T07:23:15;18.40;99.90
11474;DHT22;5793;52.238;13.438;2023-06-05T07:25:48;18.60;99.90
11474;DHT22;5793;52.238;13.438;2023-06-05T07:28:16;18.80;99.90
11474;DHT22;5793;52.238;13.438;2023-06-05T07:30:44;19.10;99.90
11474;DHT22;5793;52.238;13.438;2023-06-05T07:33:12;19.30;99.90
11474;DHT22;5793;52.238;13.438;2023-06-05T07:35:55;19.40;99.90
11474;DHT22;5793;52.238;13.438;2023-06-05T07:38:23;19.60;99.90
11474;DHT22;5793;52.238;13.438;2023-06-05T07:40:54;19.80;99.90
11474;DHT22;5793;52.238;13.438;2023-06-05T07:43:24;20.00;99.90
11474;DHT22;5793;52.238;13.438;2023-06-05T07:45:52;20.20;99.90
11474;DHT22;5793;52.238;13.438;2023-06-05T07:48:20;20.40;99.90
11474;DHT22;5793;52.238;13.438;2023-06-05T07:50:48;20.50;99.90
11474;DHT22;5793;52.238;13.438;2023-06-05T07:53:16;20.50;99.90
11474;DHT22;5793;52.238;13.438;2023-06-05T07:55:44;20.60;99.90
11474;DHT22;5793;52.238;13.438;2023-06-05T07:58:13;20.70;99.90
11474;DHT22;5793;52.238;13.438;2023-06-05T08:00:42;20.80;99.90
11474;DHT22;5793;52.238;13.438;2023-06-05T08:03:14;21.00;98.80
11474;DHT22;5793;52.238;13.438;2023-06-05T08:05:47;21.20;99.10
11474;DHT22;5793;52.238;13.438;2023-06-05T08:08:15;21.50;95.70
11474;DHT22;5793;52.238;13.438;2023-06-05T08:10:43;21.70;95.50
11474;DHT22;5793;52.238;13.438;2023-06-05T08:13:13;22.00;96.50
11474;DHT22;5793;52.238;13.438;2023-06-05T08:15:42;22.30;93.20
11474;DHT22;5793;52.238;13.438;2023-06-05T08:18:09;22.30;92.40
11474;DHT22;5793;52.238;13.438;2023-06-05T08:20:37;22.30;93.60
11474;DHT22;5793;52.238;13.438;2023-06-05T08:23:05;22.40;93.10
11474;DHT22;5793;52.238;13.438;2023-06-05T08:25:33;22.50;90.80
11474;DHT22;5793;52.238;13.438;2023-06-05T08:28:02;22.70;89.50
11474;DHT22;5793;52.238;13.438;2023-06-05T08:30:31;22.70;85.20
11474;DHT22;5793;52.238;13.438;2023-06-05T08:32:58;23.00;86.80
11474;DHT22;5793;52.238;13.438;2023-06-05T08:35:27;23.20;86.20
11474;DHT22;5793;52.238;13.438;2023-06-05T08:37:55;23.50;82.30
11474;DHT22;5793;52.238;13.438;2023-06-05T08:40:26;24.00;81.60
11474;DHT22;5793;52.238;13.438;2023-06-05T08:42:55;24.80;78.90
11474;DHT22;5793;52.238;13.438;2023-06-05T08:45:23;26.30;76.20
11474;DHT22;5793;52.238;13.438;2023-06-05T08:47:54;28.30;67.30
11474;DHT22;5793;52.238;13.438;2023-06-05T08:50:23;30.80;55.00
11474;DHT22;5793;52.238;13.438;2023-06-05T08:52:56;33.20;48.10
11474;DHT22;5793;52.238;13.438;2023-06-05T08:55:26;35.30;43.90
11474;DHT22;5793;52.238;13.438;2023-06-05T08:57:55;37.00;40.60
11474;DHT22;5793;52.238;13.438;2023-06-05T09:00:23;38.70;38.60
11474;DHT22;5793;52.238;13.438;2023-06-05T09:02:52;39.80;36.90
11474;DHT22;5793;52.238;13.438;2023-06-05T09:05:20;40.40;36.00
11474;DHT22;5793;52.238;13.438;2023-06-05T09:07:48;40.60;33.40
11474;DHT22;5793;52.238;13.438;2023-06-05T09:10:23;40.60;32.40
11474;DHT22;5793;52.238;13.438;2023-06-05T09:12:55;41.10;32.70
11474;DHT22;5793;52.238;13.438;2023-06-05T09:15:24;41.70;32.50
11474;DHT22;5793;52.238;13.438;2023-06-05T09:18:05;41.10;31.00
11474;DHT22;5793;52.238;13.438;2023-06-05T09:20:36;40.90;30.90
11474;DHT22;5793;52.238;13.438;2023-06-05T09:23:21;41.00;29.90
11474;DHT22;5793;52.238;13.438;2023-06-05T09:25:53;40.80;30.40
11474;DHT22;5793;52.238;13.438;2023-06-05T09:28:21;40.00;29.80
11474;DHT22;5793;52.238;13.438;2023-06-05T09:30:56;40.50;30.20
11474;DHT22;5793;52.238;13.438;2023-06-05T09:33:27;41.30;29.90
11474;DHT22;5793;52.238;13.438;2023-06-05T09:36:03;41.40;30.50
11474;DHT22;5793;52.238;13.438;2023-06-05T09:38:31;41.50;30.30
11474;DHT22;5793;52.238;13.438;2023-06-05T09:41:06;41.80;29.80
11474;DHT22;5793;52.238;13.438;2023-06-05T09:43:35;41.50;29.30
11474;DHT22;5793;52.238;13.438;2023-06-05T09:46:07;41.30;29.10
11474;DHT22;5793;52.238;13.438;2023-06-05T09:48:38;41.10;29.50
11474;DHT22;5793;52.238;13.438;2023-06-05T09:51:11;41.40;28.90
11474;DHT22;5793;52.238;13.438;2023-06-05T09:53:44;41.80;28.90
11474;DHT22;5793;52.238;13.438;2023-06-05T09:56:13;41.70;29.10
11474;DHT22;5793;52.238;13.438;2023-06-05T09:58:44;41.90;29.30
11474;DHT22;5793;52.238;13.438;2023-06-05T10:01:15;41.80;28.70
11474;DHT22;5793;52.238;13.438;2023-06-05T10:03:49;41.80;28.70
11474;DHT22;5793;52.238;13.438;2023-06-05T10:06:18;42.20;28.90
11474;DHT22;5793;52.238;13.438;2023-06-05T10:08:51;42.20;29.20
11474;DHT22;5793;52.238;13.438;2023-06-05T10:11:21;40.50;29.00
11474;DHT22;5793;52.238;13.438;2023-06-05T10:13:50;41.10;29.10
11474;DHT22;5793;52.238;13.438;2023-06-05T10:16:19;41.30;29.20
11474;DHT22;5793;52.238;13.438;2023-06-05T10:18:54;41.70;29.40
11474;DHT22;5793;52.238;13.438;2023-06-05T10:21:23;41.90;28.60
11474;DHT22;5793;52.238;13.438;2023-06-05T10:23:56;41.20;27.70
11474;DHT22;5793;52.238;13.438;2023-06-05T10:30:07;41.60;27.70
11474;DHT22;5793;52.238;13.438;2023-06-05T10:32:44;43.00;27.20
11474;DHT22;5793;52.238;13.438;2023-06-05T10:35:24;43.60;27.00
11474;DHT22;5793;52.238;13.438;2023-06-05T10:38:06;43.50;27.60
11474;DHT22;5793;52.238;13.438;2023-06-05T10:40:36;43.50;26.20
11474;DHT22;5793;52.238;13.438;2023-06-05T10:43:24;43.90;26.40
11474;DHT22;5793;52.238;13.438;2023-06-05T10:45:52;44.10;26.80
11474;DHT22;5793;52.238;13.438;2023-06-05T10:49:07;44.40;26.20
11474;DHT22;5793;52.238;13.438;2023-06-05T10:51:38;43.40;27.00
11474;DHT22;5793;52.238;13.438;2023-06-05T10:54:10;43.00;26.80
11474;DHT22;5793;52.238;13.438;2023-06-05T10:57:00;42.60;27.40
11474;DHT22;5793;52.238;13.438;2023-06-05T10:59:31;42.00;27.50
11474;DHT22;5793;52.238;13.438;2023-06-05T11:02:23;41.20;27.30
11474;DHT22;5793;52.238;13.438;2023-06-05T11:05:08;41.30;27.20
11474;DHT22;5793;52.238;13.438;2023-06-05T11:07:42;41.90;27.40
11474;DHT22;5793;52.238;13.438;2023-06-05T11:10:14;42.40;27.80
11474;DHT22;5793;52.238;13.438;2023-06-05T11:12:56;42.30;27.40
11474;DHT22;5793;52.238;13.438;2023-06-05T11:15:41;41.60;27.20
11474;DHT22;5793;52.238;13.438;2023-06-05T11:18:34;39.00;29.00
11474;DHT22;5793;52.238;13.438;2023-06-05T11:21:02;35.50;32.50
11474;DHT22;5793;52.238;13.438;2023-06-05T11:23:32;34.20;33.30
11474;DHT22;5793;52.238;13.438;2023-06-05T11:29:12;32.10;34.60
11474;DHT22;5793;52.238;13.438;2023-06-05T11:31:40;31.10;36.20
11474;DHT22;5793;52.238;13.438;2023-06-05T11:34:13;30.30;36.00
11474;DHT22;5793;52.238;13.438;2023-06-05T11:36:41;29.70;38.30
11474;DHT22;5793;52.238;13.438;2023-06-05T11:39:11;29.60;37.50
11474;DHT22;5793;52.238;13.438;2023-06-05T11:41:46;29.50;39.00
11474;DHT22;5793;52.238;13.438;2023-06-05T11:44:15;29.40;39.10
11474;DHT22;5793;52.238;13.438;2023-06-05T11:46:43;29.40;39.00
11474;DHT22;5793;52.238;13.438;2023-06-05T11:49:23;29.20;39.30
11474;DHT22;5793;52.238;13.438;2023-06-05T11:51:53;29.30;40.00
11474;DHT22;5793;52.238;13.438;2023-06-05T11:54:27;29.10;40.00
11474;DHT22;5793;52.238;13.438;2023-06-05T11:56:57;29.30;38.70
11474;DHT22;5793;52.238;13.438;2023-06-05T11:59:26;29.00;39.90
11474;DHT22;5793;52.238;13.438;2023-06-05T12:01:53;29.20;40.90
11474;DHT22;5793;52.238;13.438;2023-06-05T12:04:22;29.30;39.40
11474;DHT22;5793;52.238;13.438;2023-06-05T12:06:50;29.30;38.50
11474;DHT22;5793;52.238;13.438;2023-06-05T12:09:19;29.20;40.00
11474;DHT22;5793;52.238;13.438;2023-06-05T12:11:49;29.20;40.20
11474;DHT22;5793;52.238;13.438;2023-06-05T12:14:29;29.30;39.00
11474;DHT22;5793;52.238;13.438;2023-06-05T12:16:57;29.20;39.00
11474;DHT22;5793;52.238;13.438;2023-06-05T12:19:27;29.40;38.90
11474;DHT22;5793;52.238;13.438;2023-06-05T12:22:02;29.30;38.70
11474;DHT22;5793;52.238;13.438;2023-06-05T12:24:30;29.30;38.80
11474;DHT22;5793;52.238;13.438;2023-06-05T12:27:02;29.10;40.00
11474;DHT22;5793;52.238;13.438;2023-06-05T12:29:32;28.90;40.10
11474;DHT22;5793;52.238;13.438;2023-06-05T12:32:01;29.00;39.20
11474;DHT22;5793;52.238;13.438;2023-06-05T12:34:38;29.00;39.90
11474;DHT22;5793;52.238;13.438;2023-06-05T12:37:26;28.60;39.60
11474;DHT22;5793;52.238;13.438;2023-06-05T12:39:57;28.60;40.80
11474;DHT22;5793;52.238;13.438;2023-06-05T12:42:27;28.70;39.70
11474;DHT22;5793;52.238;13.438;2023-06-05T12:44:55;28.70;39.70
11474;DHT22;5793;52.238;13.438;2023-06-05T12:47:23;28.20;39.40
11474;DHT22;5793;52.238;13.438;2023-06-05T12:49:51;28.20;39.70
11474;DHT22;5793;52.238;13.438;2023-06-05T12:52:19;28.10;41.30
11474;DHT22;5793;52.238;13.438;2023-06-05T12:54:52;28.00;39.80
11474;DHT22;5793;52.238;13.438;2023-06-05T12:57:20;28.10;39.30
11474;DHT22;5793;52.238;13.438;2023-06-05T12:59:51;28.20;38.90
11474;DHT22;5793;52.238;13.438;2023-06-05T13:02:20;28.10;39.70
11474;DHT22;5793;52.238;13.438;2023-06-05T13:04:48;28.10;39.60
11474;DHT22;5793;52.238;13.438;2023-06-05T13:07:16;28.00;40.40
11474;DHT22;5793;52.238;13.438;2023-06-05T13:09:44;27.90;41.40
11474;DHT22;5793;52.238;13.438;2023-06-05T13:12:12;28.10;42.80
11474;DHT22;5793;52.238;13.438;2023-06-05T13:14:40;28.20;40.40
11474;DHT22;5793;52.238;13.438;2023-06-05T13:17:09;28.30;40.90
11474;DHT22;5793;52.238;13.438;2023-06-05T13:19:37;28.40;41.50
11474;DHT22;5793;52.238;13.438;2023-06-05T13:22:05;28.40;39.50
11474;DHT22;5793;52.238;13.438;2023-06-05T13:24:33;28.50;40.00
11474;DHT22;5793;52.238;13.438;2023-06-05T13:27:01;28.60;39.40
11474;DHT22;5793;52.238;13.438;2023-06-05T13:29:29;28.60;39.60
11474;DHT22;5793;52.238;13.438;2023-06-05T13:31:57;28.60;41.40
11474;DHT22;5793;52.238;13.438;2023-06-05T13:34:26;28.50;39.90
11474;DHT22;5793;52.238;13.438;2023-06-05T13:36:57;28.30;40.10
11474;DHT22;5793;52.238;13.438;2023-06-05T13:39:39;28.10;40.40
11474;DHT22;5793;52.238;13.438;2023-06-05T13:42:07;27.90;40.70
11474;DHT22;5793;52.238;13.438;2023-06-05T13:44:35;27.70;41.90
11474;DHT22;5793;52.238;13.438;2023-06-05T13:47:04;27.50;42.50
11474;DHT22;5793;52.238;13.438;2023-06-05T13:49:36;27.40;42.50
11474;DHT22;5793;52.238;13.438;2023-06-05T13:52:05;27.30;44.10
11474;DHT22;5793;52.238;13.438;2023-06-05T13:54:34;27.10;45.80
11474;DHT22;5793;52.238;13.438;2023-06-05T13:57:02;27.00;45.70
11474;DHT22;5793;52.238;13.438;2023-06-05T13:59:30;27.00;44.10
11474;DHT22;5793;52.238;13.438;2023-06-05T14:01:58;27.10;43.70
11474;DHT22;5793;52.238;13.438;2023-06-05T14:04:26;27.20;44.30
11474;DHT22;5793;52.238;13.438;2023-06-05T14:06:55;27.30;44.50
11474;DHT22;5793;52.238;13.438;2023-06-05T14:09:25;27.20;43.00
11474;DHT22;5793;52.238;13.438;2023-06-05T14:11:54;27.20;44.00
11474;DHT22;5793;52.238;13.438;2023-06-05T14:14:22;27.30;43.90
11474;DHT22;5793;52.238;13.438;2023-06-05T14:16:50;27.60;44.10
11474;DHT22;5793;52.238;13.438;2023-06-05T14:19:18;27.60;44.30
11474;DHT22;5793;52.238;13.438;2023-06-05T14:21:46;27.60;43.20
11474;DHT22;5793;52.238;13.438;2023-06-05T14:24:15;27.60;43.70
11474;DHT22;5793;52.238;13.438;2023-06-05T14:26:46;27.50;43.10
11474;DHT22;5793;52.238;13.438;2023-06-05T14:29:13;27.40;43.20
11474;DHT22;5793;52.238;13.438;2023-06-05T14:31:41;27.40;41.00
11474;DHT22;5793;52.238;13.438;2023-06-05T14:34:10;27.40;42.50
11474;DHT22;5793;52.238;13.438;2023-06-05T14:36:37;27.30;41.80
11474;DHT22;5793;52.238;13.438;2023-06-05T14:39:05;27.20;42.70
11474;DHT22;5793;52.238;13.438;2023-06-05T14:41:35;27.10;43.50
11474;DHT22;5793;52.238;13.438;2023-06-05T14:44:02;27.10;44.30
11474;DHT22;5793;52.238;13.438;2023-06-05T14:46:48;27.10;42.90
11474;DHT22;5793;52.238;13.438;2023-06-05T14:49:16;27.10;43.90
11474;DHT22;5793;52.238;13.438;2023-06-05T14:51:45;27.20;44.50
11474;DHT22;5793;52.238;13.438;2023-06-05T14:54:13;27.20;45.60
11474;DHT22;5793;52.238;13.438;2023-06-05T14:56:42;27.30;45.40
11474;DHT22;5793;52.238;13.438;2023-06-05T14:59:10;27.30;44.60
11474;DHT22;5793;52.238;13.438;2023-06-05T15:01:52;27.20;44.60
11474;DHT22;5793;52.238;13.438;2023-06-05T15:04:20;27.20;45.00
11474;DHT22;5793;52.238;13.438;2023-06-05T15:06:48;27.20;45.60
11474;DHT22;5793;52.238;13.438;2023-06-05T15:09:18;27.10;46.10
11474;DHT22;5793;52.238;13.438;2023-06-05T15:11:47;27.00;44.60
11474;DHT22;5793;52.238;13.438;2023-06-05T15:14:16;26.90;45.80
11474;DHT22;5793;52.238;13.438;2023-06-05T15:16:44;26.80;44.60
11474;DHT22;5793;52.238;13.438;2023-06-05T15:19:12;26.60;44.10
11474;DHT22;5793;52.238;13.438;2023-06-05T15:21:41;26.60;44.90
11474;DHT22;5793;52.238;13.438;2023-06-05T15:24:09;26.60;44.40
11474;DHT22;5793;52.238;13.438;2023-06-05T15:26:37;26.60;45.40
11474;DHT22;5793;52.238;13.438;2023-06-05T15:29:06;26.60;44.80
11474;DHT22;5793;52.238;13.438;2023-06-05T15:31:34;26.60;45.50
11474;DHT22;5793;52.238;13.438;2023-06-05T15:34:02;26.60;45.10
11474;DHT22;5793;52.238;13.438;2023-06-05T15:36:30;26.50;45.20
11474;DHT22;5793;52.238;13.438;2023-06-05T15:38:58;26.50;46.40
11474;DHT22;5793;52.238;13.438;2023-06-05T15:41:25;26.50;45.70
11474;DHT22;5793;52.238;13.438;2023-06-05T15:43:53;26.40;45.80
11474;DHT22;5793;52.238;13.438;2023-06-05T15:46:23;26.30;46.20
11474;DHT22;5793;52.238;13.438;2023-06-05T15:48:51;26.40;47.40
11474;DHT22;5793;52.238;13.438;2023-06-05T15:51:18;26.40;46.40
11474;DHT22;5793;52.238;13.438;2023-06-05T15:53:46;26.50;44.90
11474;DHT22;5793;52.238;13.438;2023-06-05T15:56:24;26.50;45.20
11474;DHT22;5793;52.238;13.438;2023-06-05T15:58:52;26.40;45.20
11474;DHT22;5793;52.238;13.438;2023-06-05T16:01:20;26.30;45.40